Rennerdale, Pennsylvania
Current Conditions -  °F | °C
As of 11:51 AM on Thursday 23 Oct 2014 (Local Time) from KPIT Reporting Station
Few Clouds Few Clouds  
Wind Chill: 56°   Ceiling: Unl
Heat Index: 56°   Visibility: 10mi
Dew Point: 42°   Wind: 14mph
Humidity: 60%   Direction: 340°NNW
Pressure: 30.12"   Gusts: NA
Location:  40.4095°N, 80.1154°W
Report Text: KPIT 231551Z 34012KT 10SM FEW022 13/06 A3012 RMK AO2 SLP210 T01330056
Loading
Personal Weather Stations






























Interactive Weather Map
Tropical Storm Tracking
New forecast layout! Learn more

10-Day Weather Forecast

Advertisements
Track Severe Weather on mobile